Time;durP1;ratioP1;P1;durP2;ratioP2;P2;SDS_P1;SDS_P2;PMS_P1;PMS_P2;Temp;Humidity;BMP_temperature;BMP_pressure;BME280_temperature;BME280_humidity;BME280_pressure;Samples;Min_cycle;Max_cycle;Signal;HPM_P1;HPM_P2
2022/08/29 00:00:17;;;;;;;1.88;1.77;;;24.70;97.90;;;;;;5051054;28;20194;-49
2022/08/29 00:02:47;;;;;;;1.77;1.67;;;24.70;97.90;;;;;;5053432;28;20194;-48
2022/08/29 00:05:14;;;;;;;1.60;1.50;;;24.70;97.90;;;;;;5052819;28;20205;-45
2022/08/29 00:07:41;;;;;;;1.38;1.30;;;24.60;97.90;;;;;;5051610;28;20277;-42
2022/08/29 00:10:09;;;;;;;1.50;1.40;;;24.60;98.00;;;;;;5053917;28;20284;-45
2022/08/29 00:12:36;;;;;;;1.50;1.40;;;24.70;98.10;;;;;;5051864;28;20285;-44
2022/08/29 00:15:04;;;;;;;1.40;1.30;;;24.70;98.10;;;;;;5050217;28;20198;-42
2022/08/29 00:17:31;;;;;;;2.55;1.20;;;24.70;98.10;;;;;;5053360;28;20221;-48
2022/08/29 00:19:59;;;;;;;1.50;1.40;;;24.60;98.10;;;;;;5049629;28;20194;-46
2022/08/29 00:22:26;;;;;;;2.22;1.70;;;24.60;98.20;;;;;;5051276;28;20229;-47
2022/08/29 00:24:53;;;;;;;2.35;1.40;;;24.60;98.20;;;;;;5049942;28;20247;-42
2022/08/29 00:27:20;;;;;;;1.60;1.50;;;24.60;98.30;;;;;;5052821;28;20194;-41
2022/08/29 00:29:47;;;;;;;1.38;1.27;;;24.60;98.30;;;;;;5050893;28;20273;-42
2022/08/29 00:32:14;;;;;;;1.60;1.50;;;24.60;98.30;;;;;;5051121;28;20198;-46
2022/08/29 00:34:41;;;;;;;1.90;1.60;;;24.60;98.40;;;;;;5054059;28;20189;-43
2022/08/29 00:37:10;;;;;;;1.20;1.17;;;24.50;98.40;;;;;;5050800;28;20222;-46
2022/08/29 00:39:37;;;;;;;1.58;1.48;;;24.50;98.50;;;;;;5052980;28;20214;-45
2022/08/29 00:42:04;;;;;;;1.38;1.27;;;24.50;98.60;;;;;;5052822;28;20194;-42
2022/08/29 00:44:31;;;;;;;1.70;1.42;;;24.50;98.80;;;;;;5049087;28;20194;-43
2022/08/29 00:47:03;;;;;;;2.00;1.60;;;24.40;98.90;;;;;;5051709;28;20725;-42
2022/08/29 00:49:35;;;;;;;1.30;1.30;;;24.40;99.00;;;;;;5049817;28;20207;-44
2022/08/29 00:52:08;;;;;;;1.40;1.30;;;24.40;99.10;;;;;;5051063;28;20198;-41
2022/08/29 00:54:38;;;;;;;1.23;1.23;;;24.40;99.10;;;;;;5052421;28;20202;-45
2022/08/29 00:57:06;;;;;;;2.47;1.40;;;24.30;99.10;;;;;;5052395;28;20656;-42
2022/08/29 00:59:36;;;;;;;1.58;1.45;;;24.30;99.50;;;;;;5051165;28;20182;-45
2022/08/29 01:02:05;;;;;;;1.00;1.00;;;24.30;99.20;;;;;;5051314;28;20201;-48
2022/08/29 01:04:33;;;;;;;1.27;1.17;;;24.30;99.40;;;;;;5050886;28;20198;-42
2022/08/29 01:07:00;;;;;;;2.47;1.40;;;24.30;99.40;;;;;;5049211;28;20240;-45
2022/08/29 01:09:28;;;;;;;1.30;1.20;;;24.30;99.50;;;;;;5050118;28;20289;-46
2022/08/29 01:12:15;;;;;;;1.20;1.20;;;24.30;99.60;;;;;;5050266;28;20281;-49
2022/08/29 01:14:46;;;;;;;1.15;1.02;;;24.30;99.60;;;;;;5051214;28;20201;-45
2022/08/29 01:17:17;;;;;;;1.38;1.27;;;24.30;99.80;;;;;;5052978;28;20657;-42
2022/08/29 01:19:50;;;;;;;1.55;1.10;;;24.30;99.70;;;;;;5049296;28;20201;-42
2022/08/29 01:22:28;;;;;;;1.33;1.30;;;24.30;99.80;;;;;;5050834;28;20320;-44
2022/08/29 01:24:58;;;;;;;2.13;1.33;;;24.30;99.80;;;;;;5047058;28;20237;-46
2022/08/29 01:27:30;;;;;;;1.48;1.27;;;24.20;99.80;;;;;;5049026;28;20190;-44
2022/08/29 01:29:57;;;;;;;2.15;1.60;;;24.20;99.80;;;;;;5044600;28;20200;-43
2022/08/29 01:32:25;;;;;;;1.30;1.20;;;24.30;99.80;;;;;;5047718;28;20205;-43
2022/08/29 01:34:52;;;;;;;1.40;1.30;;;24.30;99.90;;;;;;5048688;28;20248;-45
2022/08/29 01:37:20;;;;;;;2.13;1.40;;;24.20;99.90;;;;;;5050596;28;20710;-45
2022/08/29 01:39:47;;;;;;;1.38;1.20;;;24.20;99.90;;;;;;5046947;28;20328;-47
2022/08/29 01:42:19;;;;;;;1.25;1.02;;;24.20;99.90;;;;;;5049718;28;20273;-44
2022/08/29 01:44:49;;;;;;;1.40;1.30;;;24.20;99.90;;;;;;5047998;28;20205;-44
2022/08/29 01:47:17;;;;;;;1.95;1.35;;;24.20;99.90;;;;;;5050588;28;20291;-49
2022/08/29 01:49:44;;;;;;;1.40;1.30;;;24.10;99.90;;;;;;5047417;28;20424;-45
2022/08/29 01:52:12;;;;;;;1.50;1.40;;;24.10;99.90;;;;;;5047411;28;20720;-41
2022/08/29 01:54:40;;;;;;;2.30;1.40;;;24.00;99.90;;;;;;5048974;28;20196;-43
2022/08/29 01:57:09;;;;;;;1.52;1.42;;;24.00;99.90;;;;;;5049084;28;20221;-41
2022/08/29 01:59:39;;;;;;;2.20;1.27;;;24.00;99.90;;;;;;5046100;28;20281;-41
2022/08/29 02:02:11;;;;;;;2.25;1.65;;;24.00;99.90;;;;;;5050450;28;20186;-41
2022/08/29 02:04:39;;;;;;;1.58;1.48;;;24.00;99.90;;;;;;5046972;28;20237;-43
2022/08/29 02:07:06;;;;;;;2.55;1.77;;;24.00;99.90;;;;;;5052609;28;20190;-42
2022/08/29 02:09:33;;;;;;;1.75;1.60;;;24.00;99.90;;;;;;5050256;28;20276;-42
2022/08/29 02:12:05;;;;;;;2.97;1.48;;;24.00;99.90;;;;;;5048845;28;20198;-44
2022/08/29 02:14:33;;;;;;;1.60;1.42;;;24.00;99.90;;;;;;5046179;28;20232;-41
2022/08/29 02:17:01;;;;;;;1.55;1.45;;;24.00;99.90;;;;;;5048301;28;20788;-41
2022/08/29 02:19:28;;;;;;;2.45;1.63;;;24.00;99.90;;;;;;5048520;28;20283;-44
2022/08/29 02:21:56;;;;;;;1.80;1.52;;;24.00;99.90;;;;;;5047494;28;20248;-44
2022/08/29 02:24:23;;;;;;;1.60;1.45;;;24.00;99.90;;;;;;5049653;28;20260;-41
2022/08/29 02:26:50;;;;;;;2.25;1.42;;;23.90;99.90;;;;;;5051256;28;20263;-45
2022/08/29 02:29:17;;;;;;;1.98;1.50;;;23.90;99.90;;;;;;5050369;28;20529;-45
2022/08/29 02:31:44;;;;;;;2.70;1.33;;;23.90;99.90;;;;;;5051268;28;20630;-41
2022/08/29 02:34:13;;;;;;;2.15;1.52;;;23.90;99.90;;;;;;5051707;28;20591;-41
2022/08/29 02:36:40;;;;;;;2.67;1.70;;;23.90;99.90;;;;;;5048576;28;20221;-43
2022/08/29 02:39:07;;;;;;;4.22;2.05;;;23.90;99.90;;;;;;5049761;28;20205;-42
2022/08/29 02:41:34;;;;;;;1.92;1.55;;;23.90;99.90;;;;;;5050286;28;20247;-42
2022/08/29 02:44:02;;;;;;;1.63;1.52;;;23.90;99.90;;;;;;5049248;28;20696;-46
2022/08/29 02:46:29;;;;;;;2.05;1.80;;;23.90;99.90;;;;;;5049672;28;20187;-41
2022/08/29 02:48:56;;;;;;;2.67;1.67;;;23.90;99.90;;;;;;5046947;28;20193;-42
2022/08/29 02:51:27;;;;;;;1.67;1.58;;;23.90;99.90;;;;;;5046282;28;20202;-42
2022/08/29 02:53:54;;;;;;;2.80;1.77;;;23.90;99.90;;;;;;5049510;28;20196;-40
2022/08/29 02:56:21;;;;;;;1.88;1.75;;;23.90;99.90;;;;;;5050977;28;20654;-43
2022/08/29 02:58:49;;;;;;;1.50;1.40;;;23.90;99.90;;;;;;5048944;28;20289;-41
2022/08/29 03:01:17;;;;;;;1.50;1.40;;;23.90;99.90;;;;;;5051498;28;20201;-40
2022/08/29 03:03:44;;;;;;;1.95;1.58;;;23.90;99.90;;;;;;5049705;28;20194;-43
2022/08/29 03:06:12;;;;;;;1.55;1.38;;;23.90;99.90;;;;;;5049963;28;20648;-45
2022/08/29 03:08:40;;;;;;;2.20;1.38;;;23.90;99.80;;;;;;5050922;28;20194;-44
2022/08/29 03:11:08;;;;;;;1.10;1.05;;;23.90;99.90;;;;;;5053236;28;20280;-44
2022/08/29 03:13:36;;;;;;;1.88;1.30;;;23.90;99.70;;;;;;5051256;28;20209;-40
2022/08/29 03:16:04;;;;;;;1.13;1.13;;;23.90;99.70;;;;;;5052854;28;20202;-46
2022/08/29 03:18:31;;;;;;;1.42;1.30;;;23.90;99.70;;;;;;5052323;28;20629;-42
2022/08/29 03:20:59;;;;;;;1.20;1.10;;;23.90;99.70;;;;;;5054020;28;20371;-42
2022/08/29 03:23:26;;;;;;;2.47;1.63;;;23.90;99.70;;;;;;5052881;28;20757;-40
2022/08/29 03:25:54;;;;;;;1.77;1.67;;;23.80;99.70;;;;;;5051583;28;20571;-41
2022/08/29 03:28:22;;;;;;;2.22;1.60;;;23.80;99.70;;;;;;5050845;28;20280;-40
2022/08/29 03:30:49;;;;;;;1.52;1.42;;;23.80;99.70;;;;;;5053617;28;20277;-44
2022/08/29 03:33:17;;;;;;;1.70;1.60;;;23.80;99.70;;;;;;5051434;28;20198;-44
2022/08/29 03:35:43;;;;;;;1.95;1.50;;;23.70;99.70;;;;;;5052763;28;20591;-40
2022/08/29 03:38:10;;;;;;;3.03;1.50;;;23.70;99.70;;;;;;5054094;28;20835;-43
2022/08/29 03:40:40;;;;;;;1.98;1.50;;;23.70;99.60;;;;;;5052885;28;20205;-40
2022/08/29 03:43:09;;;;;;;1.50;1.40;;;23.70;99.70;;;;;;5048143;28;20206;-40
2022/08/29 03:45:37;;;;;;;1.83;1.20;;;23.70;99.70;;;;;;5054133;28;20205;-41
2022/08/29 03:48:05;;;;;;;1.77;1.60;;;23.70;99.70;;;;;;5053275;28;20649;-48
2022/08/29 03:50:32;;;;;;;1.10;1.10;;;23.70;99.70;;;;;;5052253;28;20228;-49
2022/08/29 03:53:00;;;;;;;1.70;1.60;;;23.60;99.70;;;;;;5053868;28;20205;-45
2022/08/29 03:55:27;;;;;;;3.22;1.77;;;23.60;99.70;;;;;;5053649;28;20280;-46
2022/08/29 03:57:55;;;;;;;1.50;1.40;;;23.60;99.70;;;;;;5049782;28;20263;-46
2022/08/29 04:00:24;;;;;;;1.58;1.48;;;23.60;99.70;;;;;;5049971;28;20283;-42
2022/08/29 04:02:52;;;;;;;1.77;1.40;;;23.60;99.70;;;;;;5050266;28;20539;-48
2022/08/29 04:05:19;;;;;;;1.58;1.48;;;23.60;99.70;;;;;;5050612;28;20198;-47
2022/08/29 04:07:49;;;;;;;3.28;1.60;;;23.60;99.80;;;;;;5051458;28;20726;-42
2022/08/29 04:10:19;;;;;;;3.63;1.77;;;23.50;99.70;;;;;;5049434;28;20863;-45
2022/08/29 04:12:46;;;;;;;2.55;1.60;;;23.50;99.80;;;;;;5050386;28;20284;-43
2022/08/29 04:15:14;;;;;;;1.73;1.63;;;23.50;99.80;;;;;;5049508;28;20212;-43
2022/08/29 04:17:42;;;;;;;1.67;1.40;;;23.50;99.90;;;;;;5051130;28;20206;-43
2022/08/29 04:20:10;;;;;;;2.92;1.80;;;23.50;99.80;;;;;;5046534;28;20266;-45
2022/08/29 04:22:38;;;;;;;1.50;1.33;;;23.50;99.80;;;;;;5049350;28;20343;-40
2022/08/29 04:25:08;;;;;;;2.03;1.67;;;23.50;99.70;;;;;;5052008;28;20729;-41
2022/08/29 04:27:36;;;;;;;2.00;1.42;;;23.50;99.70;;;;;;5049143;28;20636;-43
2022/08/29 04:30:06;;;;;;;3.50;1.75;;;23.50;99.70;;;;;;5049444;28;20565;-48
2022/08/29 04:32:33;;;;;;;1.60;1.50;;;23.50;99.80;;;;;;5050936;28;20205;-42
2022/08/29 04:35:01;;;;;;;1.60;1.50;;;23.40;99.80;;;;;;5051779;28;20539;-44
2022/08/29 04:37:28;;;;;;;1.75;1.30;;;23.40;99.90;;;;;;5049696;28;20212;-45
2022/08/29 04:39:55;;;;;;;2.22;2.03;;;23.40;99.90;;;;;;5048174;28;20642;-46
2022/08/29 04:42:23;;;;;;;4.05;2.00;;;23.40;99.90;;;;;;5052590;28;20589;-47
2022/08/29 04:44:51;;;;;;;2.25;1.52;;;23.30;99.90;;;;;;5048900;28;20191;-44
2022/08/29 04:47:20;;;;;;;1.90;1.80;;;23.30;99.90;;;;;;5050053;28;20281;-45
2022/08/29 04:49:48;;;;;;;2.35;1.75;;;23.30;99.90;;;;;;5047707;28;20201;-47
2022/08/29 04:52:16;;;;;;;1.15;1.05;;;23.30;99.90;;;;;;5052988;28;20278;-47
2022/08/29 04:54:43;;;;;;;1.60;1.50;;;23.30;99.90;;;;;;5049147;28;20595;-42
2022/08/29 04:57:10;;;;;;;1.55;1.45;;;23.30;99.90;;;;;;5050308;28;20297;-42
2022/08/29 04:59:37;;;;;;;1.70;1.60;;;23.20;99.90;;;;;;5048944;28;20198;-45
2022/08/29 05:02:04;;;;;;;2.55;1.63;;;23.20;99.90;;;;;;5050624;28;20348;-46
2022/08/29 05:04:31;;;;;;;1.52;1.30;;;23.20;99.90;;;;;;5049406;28;20197;-45
2022/08/29 05:06:59;;;;;;;1.65;1.55;;;23.20;99.90;;;;;;5050297;28;20205;-47
2022/08/29 05:09:27;;;;;;;1.88;1.58;;;23.20;99.90;;;;;;5049470;28;20273;-44
2022/08/29 05:11:54;;;;;;;2.15;1.90;;;23.20;99.90;;;;;;5051515;28;20285;-48
2022/08/29 05:14:21;;;;;;;2.33;1.80;;;23.20;99.90;;;;;;5049672;28;20662;-45
2022/08/29 05:16:48;;;;;;;2.30;1.63;;;23.20;99.90;;;;;;5051817;28;20193;-45
2022/08/29 05:19:15;;;;;;;1.80;1.70;;;23.20;99.90;;;;;;5051756;28;20220;-45
2022/08/29 05:21:43;;;;;;;1.75;1.65;;;23.20;99.90;;;;;;5051866;28;20327;-43
2022/08/29 05:24:12;;;;;;;2.63;1.50;;;23.20;99.90;;;;;;5053564;28;20284;-48
2022/08/29 05:26:42;;;;;;;1.92;1.70;;;23.20;99.90;;;;;;5048558;28;20217;-47
2022/08/29 05:29:11;;;;;;;2.42;1.83;;;23.20;99.90;;;;;;5052852;28;20284;-50
2022/08/29 05:31:39;;;;;;;2.97;1.70;;;23.20;99.90;;;;;;5051821;28;20273;-40
2022/08/29 05:34:07;;;;;;;1.63;1.52;;;23.20;99.90;;;;;;5052372;28;20676;-42
2022/08/29 05:36:34;;;;;;;1.20;1.20;;;23.10;99.90;;;;;;5050463;28;20197;-43
2022/08/29 05:39:01;;;;;;;1.13;1.10;;;23.20;99.90;;;;;;5051117;28;20218;-39
2022/08/29 05:41:28;;;;;;;1.25;1.15;;;23.20;99.90;;;;;;5051367;28;20197;-39
2022/08/29 05:43:58;;;;;;;1.77;1.48;;;23.20;99.90;;;;;;5049871;28;20203;-39
2022/08/29 05:46:25;;;;;;;1.27;1.20;;;23.20;99.90;;;;;;5049814;28;20273;-42
2022/08/29 05:48:52;;;;;;;1.83;1.38;;;23.30;99.90;;;;;;5050274;28;20675;-42
2022/08/29 05:51:23;;;;;;;1.10;1.10;;;23.20;99.90;;;;;;5048905;28;20205;-42
2022/08/29 05:53:50;;;;;;;2.25;1.65;;;23.30;99.90;;;;;;5049497;28;20192;-42
2022/08/29 05:56:22;;;;;;;2.60;1.42;;;23.30;99.90;;;;;;5050857;28;20546;-47
2022/08/29 05:58:49;;;;;;;1.50;1.40;;;23.30;99.90;;;;;;5047993;28;20558;-46
2022/08/29 06:01:24;;;;;;;2.03;1.70;;;23.30;99.90;;;;;;5048060;28;20721;-44
2022/08/29 06:03:51;;;;;;;1.90;1.65;;;23.30;99.90;;;;;;5051119;28;20190;-48
2022/08/29 06:06:20;;;;;;;3.15;1.80;;;23.30;99.90;;;;;;5049681;28;20213;-42
2022/08/29 06:08:48;;;;;;;1.55;1.40;;;23.30;99.90;;;;;;5046283;28;20625;-47
2022/08/29 06:11:17;;;;;;;1.70;1.60;;;23.20;99.90;;;;;;5048991;28;20200;-43
2022/08/29 06:13:44;;;;;;;1.55;1.30;;;23.20;99.90;;;;;;5046126;28;20839;-41
2022/08/29 06:16:13;;;;;;;1.30;1.20;;;23.20;99.90;;;;;;5047430;28;20681;-43
2022/08/29 06:18:41;;;;;;;2.25;1.40;;;23.20;99.90;;;;;;5050045;28;20214;-44
2022/08/29 06:21:10;;;;;;;2.15;1.55;;;23.10;99.90;;;;;;5050375;28;20285;-47
2022/08/29 06:23:37;;;;;;;1.58;1.35;;;23.10;99.90;;;;;;5048757;28;20292;-43
2022/08/29 06:26:05;;;;;;;1.42;1.33;;;23.10;99.90;;;;;;5047883;28;20289;-47
2022/08/29 06:28:33;;;;;;;1.50;1.40;;;23.10;99.90;;;;;;5047013;28;20289;-45
2022/08/29 06:31:06;;;;;;;1.30;1.30;;;23.10;99.90;;;;;;5049611;28;20550;-46
2022/08/29 06:33:33;;;;;;;4.15;1.45;;;23.20;99.90;;;;;;5048600;28;20282;-45
2022/08/29 06:36:02;;;;;;;1.80;1.70;;;23.10;99.90;;;;;;5050374;28;20197;-41
2022/08/29 06:38:29;;;;;;;0.95;0.95;;;23.20;99.90;;;;;;5048620;28;20252;-41
2022/08/29 06:40:56;;;;;;;1.40;1.30;;;23.30;99.90;;;;;;5049703;28;20232;-43
2022/08/29 06:43:23;;;;;;;1.40;1.30;;;23.30;99.90;;;;;;5047160;28;20316;-42
2022/08/29 06:45:50;;;;;;;1.10;1.00;;;23.40;99.90;;;;;;5055134;28;20200;-43
2022/08/29 06:48:17;;;;;;;5.05;1.50;;;23.50;99.90;;;;;;5053238;28;20198;-43
2022/08/29 06:50:44;;;;;;;0.98;0.98;;;23.50;99.90;;;;;;5052972;28;20678;-42
2022/08/29 06:53:13;;;;;;;1.02;1.02;;;23.60;99.90;;;;;;5050132;28;20193;-44
2022/08/29 06:55:40;;;;;;;1.35;1.10;;;23.70;99.90;;;;;;5048930;28;20225;-42
2022/08/29 06:58:07;;;;;;;0.90;0.90;;;23.70;99.90;;;;;;5068090;28;20332;-45
2022/08/29 07:00:34;;;;;;;0.90;0.90;;;23.80;99.90;;;;;;5051800;28;20275;-45
2022/08/29 07:03:01;;;;;;;1.15;1.05;;;23.90;99.90;;;;;;5050685;28;20285;-44
2022/08/29 07:05:29;;;;;;;2.80;1.27;;;24.00;99.90;;;;;;5051656;28;20285;-42
2022/08/29 07:07:56;;;;;;;0.90;0.90;;;24.00;99.90;;;;;;5052296;28;20194;-43
2022/08/29 07:10:24;;;;;;;2.50;1.27;;;24.00;99.90;;;;;;5052025;28;20198;-43
2022/08/29 07:12:52;;;;;;;1.38;1.20;;;24.10;99.90;;;;;;5053231;28;20206;-44
2022/08/29 07:15:19;;;;;;;1.58;1.13;;;24.20;99.90;;;;;;5051143;28;20221;-44
2022/08/29 07:17:47;;;;;;;1.00;1.00;;;24.30;99.90;;;;;;5054407;28;20193;-44
2022/08/29 07:20:14;;;;;;;1.08;0.90;;;24.30;99.90;;;;;;5050695;28;20244;-44
2022/08/29 07:22:41;;;;;;;0.90;0.90;;;24.40;99.90;;;;;;5050190;28;20189;-46
2022/08/29 07:25:10;;;;;;;0.80;0.80;;;24.50;99.90;;;;;;5065374;28;20221;-44
2022/08/29 07:27:38;;;;;;;0.90;0.90;;;24.50;99.90;;;;;;5050367;28;20190;-45
2022/08/29 07:30:06;;;;;;;1.08;0.90;;;24.50;99.90;;;;;;5051212;28;20201;-41
2022/08/29 07:32:33;;;;;;;1.05;0.90;;;24.60;99.90;;;;;;5051775;28;20744;-46
2022/08/29 07:35:00;;;;;;;0.80;0.80;;;24.60;99.80;;;;;;5050656;28;20217;-48
2022/08/29 07:37:27;;;;;;;1.38;1.20;;;24.60;99.70;;;;;;5052337;28;20198;-47
2022/08/29 07:39:55;;;;;;;1.00;1.00;;;24.70;99.60;;;;;;5048807;28;20221;-44
2022/08/29 07:42:22;;;;;;;1.10;1.00;;;24.70;99.50;;;;;;5051275;28;20773;-46
2022/08/29 07:44:50;;;;;;;1.73;0.90;;;24.80;99.50;;;;;;5050947;28;20239;-46
2022/08/29 07:47:17;;;;;;;0.80;0.80;;;24.80;99.50;;;;;;5050928;28;20221;-45
2022/08/29 07:49:44;;;;;;;0.95;0.95;;;24.80;99.30;;;;;;5064327;28;20218;-47
2022/08/29 07:52:11;;;;;;;0.90;0.90;;;24.80;99.30;;;;;;5049885;28;20232;-48
2022/08/29 07:54:38;;;;;;;0.73;0.73;;;24.80;99.20;;;;;;5050948;28;20661;-47
2022/08/29 07:57:06;;;;;;;0.80;0.80;;;24.90;99.10;;;;;;5050943;28;20213;-45
2022/08/29 07:59:33;;;;;;;0.70;0.70;;;25.00;99.10;;;;;;5045659;28;20232;-42
2022/08/29 08:02:02;;;;;;;2.42;0.80;;;25.00;99.00;;;;;;5048123;28;20190;-44
2022/08/29 08:04:29;;;;;;;0.90;0.90;;;25.00;98.90;;;;;;5050829;28;20196;-45
2022/08/29 08:06:56;;;;;;;0.93;0.93;;;25.10;98.70;;;;;;5050577;28;20680;-49
2022/08/29 08:09:23;;;;;;;1.30;0.90;;;25.20;98.50;;;;;;5047951;28;20256;-43
2022/08/29 08:11:50;;;;;;;1.00;0.90;;;25.20;98.40;;;;;;5052299;28;20653;-42
2022/08/29 08:14:17;;;;;;;0.77;0.77;;;25.30;98.20;;;;;;5048144;28;20248;-44
2022/08/29 08:16:44;;;;;;;0.73;0.73;;;25.30;98.00;;;;;;5048681;28;20515;-42
2022/08/29 08:19:14;;;;;;;1.20;0.70;;;25.40;97.90;;;;;;5052360;28;20205;-47
2022/08/29 08:21:42;;;;;;;1.02;0.80;;;25.30;97.60;;;;;;5048282;28;20236;-41
2022/08/29 08:24:09;;;;;;;0.70;0.70;;;25.30;97.60;;;;;;5049107;28;20226;-51
2022/08/29 08:26:37;;;;;;;1.50;1.00;;;25.30;97.60;;;;;;5052909;28;20202;-42
2022/08/29 08:29:04;;;;;;;0.90;0.90;;;25.40;97.50;;;;;;5049685;28;20226;-45
2022/08/29 08:31:31;;;;;;;0.80;0.80;;;25.40;97.40;;;;;;5050052;28;20218;-45
2022/08/29 08:33:58;;;;;;;0.70;0.70;;;25.50;97.70;;;;;;5047555;28;20626;-42
2022/08/29 08:36:29;;;;;;;1.20;0.93;;;25.50;97.30;;;;;;5051570;28;20205;-48
2022/08/29 08:38:58;;;;;;;1.02;1.02;;;25.50;97.20;;;;;;5051592;28;20233;-47
2022/08/29 08:41:35;;;;;;;1.05;0.70;;;25.50;97.30;;;;;;5052134;28;20255;-44
2022/08/29 08:44:05;;;;;;;1.63;1.02;;;25.60;96.90;;;;;;5045521;28;20225;-44
2022/08/29 08:46:37;;;;;;;0.70;0.70;;;25.70;96.60;;;;;;5052146;28;20692;-43
2022/08/29 08:49:07;;;;;;;0.77;0.77;;;25.80;96.90;;;;;;5048504;28;20209;-44
2022/08/29 08:51:42;;;;;;;1.80;1.00;;;25.80;96.30;;;;;;5049717;28;20210;-46
2022/08/29 08:54:14;;;;;;;0.90;0.90;;;25.90;96.10;;;;;;5048789;28;20259;-45
2022/08/29 08:56:46;;;;;;;1.98;0.80;;;25.90;96.10;;;;;;5051635;28;20543;-48
2022/08/29 08:59:18;;;;;;;1.52;1.02;;;25.80;95.90;;;;;;5050278;28;20212;-46
2022/08/29 09:01:58;;;;;;;1.20;0.80;;;25.90;95.80;;;;;;5049478;28;20294;-44
2022/08/29 09:04:38;;;;;;;1.00;0.93;;;26.00;95.70;;;;;;5051764;28;20556;-40
2022/08/29 09:07:18;;;;;;;1.05;0.80;;;26.00;95.60;;;;;;5047607;28;20186;-40
2022/08/29 09:10:01;;;;;;;0.75;0.70;;;26.00;95.60;;;;;;5051416;28;20225;-38
2022/08/29 09:12:40;;;;;;;0.80;0.80;;;26.10;95.40;;;;;;5051258;28;20658;-41
2022/08/29 09:15:11;;;;;;;0.70;0.70;;;26.20;95.20;;;;;;5050200;28;20189;-39
2022/08/29 09:17:42;;;;;;;1.60;0.90;;;26.30;95.00;;;;;;5050863;28;20774;-41
2022/08/29 09:20:13;;;;;;;0.90;0.90;;;26.30;94.80;;;;;;5049727;28;20214;-39
2022/08/29 09:22:45;;;;;;;0.70;0.70;;;26.50;94.70;;;;;;5052294;28;20204;-41
2022/08/29 09:25:13;;;;;;;1.55;0.63;;;26.60;94.90;;;;;;5049664;28;20231;-40
2022/08/29 09:27:40;;;;;;;1.85;0.70;;;26.60;94.20;;;;;;5051044;28;20225;-41
2022/08/29 09:30:12;;;;;;;0.88;0.85;;;26.70;93.70;;;;;;5048460;28;20209;-40
2022/08/29 09:32:57;;;;;;;0.65;0.65;;;26.70;93.40;;;;;;5052230;28;20209;-39
2022/08/29 09:35:27;;;;;;;0.90;0.90;;;26.70;93.40;;;;;;5047137;28;20657;-41
2022/08/29 09:38:01;;;;;;;1.13;0.90;;;26.70;93.60;;;;;;5048172;28;20197;-42
2022/08/29 09:40:57;;;;;;;0.77;0.77;;;26.70;93.20;;;;;;5043877;28;20287;-42
2022/08/29 09:43:27;;;;;;;1.00;0.82;;;26.80;93.20;;;;;;5014553;28;20297;-41
2022/08/29 09:46:17;;;;;;;1.00;1.00;;;26.80;92.80;;;;;;5048439;28;20616;-43
2022/08/29 09:48:47;;;;;;;0.90;0.90;;;26.80;91.90;;;;;;5048203;28;20571;-41
2022/08/29 09:51:27;;;;;;;1.38;0.90;;;26.80;91.70;;;;;;5049419;28;20368;-44
2022/08/29 09:54:11;;;;;;;0.80;0.80;;;26.80;91.60;;;;;;5045952;28;20194;-43
2022/08/29 09:56:50;;;;;;;0.80;0.80;;;26.80;91.60;;;;;;5047628;28;20193;-47
2022/08/29 09:59:23;;;;;;;0.75;0.75;;;26.90;91.40;;;;;;5044292;28;20212;-44
2022/08/29 10:02:07;;;;;;;0.98;0.98;;;26.90;91.30;;;;;;5049984;28;20342;-44
2022/08/29 10:04:39;;;;;;;0.77;0.77;;;27.00;91.10;;;;;;5049829;28;20653;-44
2022/08/29 10:07:12;;;;;;;1.13;1.05;;;27.10;90.80;;;;;;5048381;28;20190;-41
2022/08/29 10:09:40;;;;;;;1.48;1.08;;;27.20;90.70;;;;;;5047049;28;20213;-40
2022/08/29 10:12:12;;;;;;;1.00;1.00;;;27.20;90.80;;;;;;5049843;28;20251;-41
2022/08/29 10:14:46;;;;;;;2.05;1.30;;;27.20;90.50;;;;;;5047809;28;20194;-44
2022/08/29 10:20:08;;;;;;;1.27;1.27;;;27.10;90.20;;;;;;5051224;28;20213;-43
2022/08/29 10:22:40;;;;;;;1.70;1.38;;;27.00;89.70;;;;;;5054200;28;20220;-45
2022/08/29 10:25:19;;;;;;;1.05;1.02;;;27.00;90.00;;;;;;5055492;28;20221;-47
2022/08/29 10:27:54;;;;;;;1.10;1.10;;;27.00;90.00;;;;;;5051758;28;20194;-47
2022/08/29 10:30:25;;;;;;;1.33;1.23;;;27.10;90.10;;;;;;5049416;28;20239;-49
2022/08/29 10:33:18;;;;;;;1.20;1.20;;;27.10;89.80;;;;;;5054101;28;20276;-45
2022/08/29 10:35:53;;;;;;;1.00;1.00;;;27.10;89.30;;;;;;5043763;28;20626;-46
2022/08/29 10:38:34;;;;;;;1.38;1.10;;;27.20;89.30;;;;;;5052691;28;20258;-47
2022/08/29 10:41:11;;;;;;;1.00;1.00;;;27.20;89.00;;;;;;5053345;28;20292;-43
2022/08/29 10:43:44;;;;;;;0.90;0.90;;;27.10;89.20;;;;;;5047148;28;20749;-41
2022/08/29 10:46:36;;;;;;;0.90;0.90;;;27.10;89.50;;;;;;5055542;28;20266;-39
2022/08/29 10:49:16;;;;;;;0.80;0.80;;;27.00;89.70;;;;;;5052352;28;20554;-44
2022/08/29 10:51:54;;;;;;;0.80;0.80;;;27.10;89.80;;;;;;5053457;28;20277;-48
2022/08/29 10:54:29;;;;;;;0.90;0.90;;;27.00;90.00;;;;;;5052553;28;20525;-45
2022/08/29 10:56:59;;;;;;;0.80;0.80;;;27.00;89.90;;;;;;5050876;28;20213;-40
2022/08/29 10:59:36;;;;;;;1.00;1.00;;;27.00;89.90;;;;;;5048692;28;20214;-42
2022/08/29 11:02:09;;;;;;;1.15;1.15;;;27.00;89.80;;;;;;5051484;28;20280;-49
2022/08/29 11:04:40;;;;;;;2.50;1.40;;;27.20;89.50;;;;;;5052108;28;20551;-46
2022/08/29 11:07:14;;;;;;;1.30;1.20;;;27.20;88.90;;;;;;5051143;28;20202;-43
2022/08/29 11:09:46;;;;;;;1.00;1.00;;;27.10;88.70;;;;;;5051536;28;20197;-46
2022/08/29 11:12:18;;;;;;;1.77;1.30;;;27.10;88.90;;;;;;5053308;28;20193;-49
2022/08/29 11:14:51;;;;;;;1.25;1.15;;;27.10;88.90;;;;;;5050472;28;20198;-44
2022/08/29 11:17:21;;;;;;;5.00;1.20;;;27.00;89.30;;;;;;5052417;28;20213;-42
2022/08/29 11:20:00;;;;;;;1.38;1.20;;;26.90;89.30;;;;;;5049942;28;20250;-41
2022/08/29 11:22:35;;;;;;;1.35;1.00;;;26.90;88.70;;;;;;5053052;28;20214;-43
2022/08/29 11:25:09;;;;;;;2.65;1.25;;;27.00;88.40;;;;;;5051900;28;20229;-46
2022/08/29 11:27:50;;;;;;;1.30;1.20;;;27.00;88.00;;;;;;5052496;28;20212;-43
2022/08/29 11:30:21;;;;;;;0.90;0.90;;;27.10;87.90;;;;;;5049343;28;20182;-46
2022/08/29 11:33:08;;;;;;;1.08;1.08;;;27.10;88.00;;;;;;5050175;28;20190;-40
2022/08/29 11:35:45;;;;;;;2.10;1.42;;;27.20;87.50;;;;;;5050469;28;20265;-43
2022/08/29 11:38:50;;;;;;;1.10;1.10;;;27.30;86.30;;;;;;5049826;28;20197;-42
2022/08/29 11:41:28;;;;;;;0.85;0.85;;;27.30;85.70;;;;;;5038631;28;20253;-41
2022/08/29 11:44:09;;;;;;;2.08;0.98;;;27.20;85.60;;;;;;5049583;28;20213;-40
2022/08/29 11:46:39;;;;;;;0.90;0.90;;;27.20;85.70;;;;;;5050950;28;20272;-41
2022/08/29 11:49:42;;;;;;;1.02;1.02;;;27.20;85.90;;;;;;5052163;28;20198;-40
2022/08/29 11:52:19;;;;;;;2.40;1.30;;;27.30;85.70;;;;;;5052562;28;20202;-42
2022/08/29 11:54:55;;;;;;;1.92;1.27;;;27.30;85.30;;;;;;5051007;28;20287;-44
2022/08/29 11:57:49;;;;;;;0.93;0.93;;;27.20;85.40;;;;;;5049355;28;20280;-46
2022/08/29 12:00:53;;;;;;;0.90;0.90;;;27.20;85.90;;;;;;5047134;28;20620;-50
2022/08/29 12:03:54;;;;;;;1.35;1.25;;;27.30;86.00;;;;;;5049420;28;20200;-42
2022/08/29 12:06:56;;;;;;;1.20;1.10;;;27.30;85.90;;;;;;5050888;28;20231;-41
2022/08/29 12:09:44;;;;;;;1.50;1.40;;;27.40;85.60;;;;;;5050826;28;20193;-43
2022/08/29 12:12:31;;;;;;;1.50;1.40;;;27.40;84.80;;;;;;5050502;28;20198;-45
2022/08/29 12:14:58;;;;;;;1.00;1.00;;;27.40;84.70;;;;;;5047757;28;20284;-44
2022/08/29 12:17:44;;;;;;;1.80;1.38;;;27.40;84.80;;;;;;5055319;28;20191;-40
2022/08/29 12:20:32;;;;;;;1.17;1.08;;;27.40;84.60;;;;;;5048597;28;20297;-45
2022/08/29 12:23:02;;;;;;;0.90;0.90;;;27.40;84.20;;;;;;5049084;28;20223;-42
2022/08/29 12:25:44;;;;;;;0.88;0.85;;;27.40;84.30;;;;;;5047007;28;20198;-41
2022/08/29 12:28:32;;;;;;;4.78;0.90;;;27.40;84.30;;;;;;5048043;28;20185;-44
2022/08/29 12:31:22;;;;;;;0.90;0.90;;;27.40;84.30;;;;;;5049522;28;20255;-43
2022/08/29 12:34:05;;;;;;;2.70;0.88;;;27.40;84.40;;;;;;5049934;28;20214;-41
2022/08/29 12:36:47;;;;;;;1.50;1.10;;;27.30;84.40;;;;;;5050707;28;20645;-40
2022/08/29 12:39:31;;;;;;;1.10;1.00;;;27.20;84.20;;;;;;5050919;28;20251;-42
2022/08/29 12:42:19;;;;;;;1.08;0.98;;;27.20;84.30;;;;;;5049018;28;20193;-41
2022/08/29 12:44:50;;;;;;;1.17;1.00;;;27.20;84.10;;;;;;5045559;28;20213;-41
2022/08/29 12:47:25;;;;;;;0.70;0.70;;;27.10;84.30;;;;;;5050199;28;20275;-42
2022/08/29 12:49:56;;;;;;;0.90;0.90;;;27.10;84.40;;;;;;5048271;28;20239;-40
2022/08/29 12:52:26;;;;;;;0.90;0.90;;;27.20;84.40;;;;;;5051311;28;20227;-40
2022/08/29 12:54:55;;;;;;;1.05;1.00;;;27.20;84.40;;;;;;5051079;28;20255;-41
2022/08/29 12:57:25;;;;;;;0.90;0.90;;;27.20;84.20;;;;;;5047397;28;20345;-41
2022/08/29 12:59:55;;;;;;;1.08;0.95;;;27.20;84.10;;;;;;5046895;28;20201;-41
2022/08/29 13:02:26;;;;;;;0.90;0.90;;;27.20;84.40;;;;;;5047038;28;20202;-40
2022/08/29 13:04:55;;;;;;;0.80;0.80;;;27.10;85.10;;;;;;5048311;28;20348;-41
2022/08/29 13:07:23;;;;;;;1.40;0.90;;;27.00;85.80;;;;;;5047955;28;20195;-41
2022/08/29 13:09:53;;;;;;;0.90;0.90;;;26.90;87.00;;;;;;5048310;28;20239;-52